createdAt,value
2023-01-26T00:00:04.894Z,51.80
2023-01-26T00:02:35.457Z,51.56
2023-01-26T00:05:06.249Z,51.97
2023-01-26T00:07:36.708Z,51.74
2023-01-26T00:10:08.182Z,51.70
2023-01-26T00:12:38.716Z,52.16
2023-01-26T00:15:09.583Z,51.97
2023-01-26T00:17:40.064Z,51.98
2023-01-26T00:20:11.268Z,52.39
2023-01-26T00:22:41.984Z,52.12
2023-01-26T00:25:13.218Z,52.68
2023-01-26T00:27:43.635Z,52.39
2023-01-26T00:30:14.546Z,52.78
2023-01-26T00:32:45.120Z,52.65
2023-01-26T00:35:15.633Z,52.74
2023-01-26T00:37:46.333Z,52.72
2023-01-26T00:40:18.159Z,52.60
2023-01-26T00:42:48.588Z,52.65
2023-01-26T00:45:19.085Z,52.22
2023-01-26T00:47:49.492Z,52.21
2023-01-26T00:50:20.147Z,52.50
2023-01-26T00:52:50.583Z,52.49
2023-01-26T00:55:21.522Z,52.74
2023-01-26T00:57:52.067Z,52.80
2023-01-26T01:00:22.660Z,52.89
2023-01-26T01:02:53.098Z,52.93
2023-01-26T01:05:27.431Z,52.68
2023-01-26T01:07:58.165Z,52.56
2023-01-26T01:10:28.990Z,52.94
2023-01-26T01:12:59.373Z,52.78
2023-01-26T01:15:29.883Z,53.03
2023-01-26T01:18:00.256Z,53.22
2023-01-26T01:20:33.035Z,52.90
2023-01-26T01:23:03.442Z,52.93
2023-01-26T01:25:36.162Z,53.10
2023-01-26T01:28:06.869Z,52.89
2023-01-26T01:30:39.564Z,52.16
2023-01-26T01:33:09.904Z,51.13
2023-01-26T01:35:40.346Z,50.73
2023-01-26T01:38:10.877Z,50.33
2023-01-26T01:40:44.591Z,49.65
2023-01-26T01:43:15.792Z,49.94
2023-01-26T01:45:47.920Z,50.13
2023-01-26T01:48:18.350Z,49.80
2023-01-26T01:50:51.506Z,49.45
2023-01-26T01:53:28.744Z,49.54
2023-01-26T01:56:01.817Z,49.28
2023-01-26T01:58:33.415Z,50.09
2023-01-26T02:01:04.106Z,49.92
2023-01-26T02:03:36.313Z,49.80
2023-01-26T02:06:17.646Z,50.12
2023-01-26T02:08:53.091Z,49.94
2023-01-26T02:11:26.624Z,49.52
2023-01-26T02:13:59.607Z,49.64
2023-01-26T02:16:32.835Z,49.59
2023-01-26T02:19:03.864Z,49.74
2023-01-26T02:21:35.183Z,49.72
2023-01-26T02:24:13.647Z,49.53
2023-01-26T02:26:44.689Z,50.06
2023-01-26T02:29:15.511Z,50.47
2023-01-26T02:31:47.832Z,50.49
2023-01-26T02:34:18.603Z,50.69
2023-01-26T02:36:58.461Z,50.28
2023-01-26T02:39:36.535Z,50.28
2023-01-26T02:42:25.870Z,50.80
2023-01-26T02:44:56.482Z,50.79
2023-01-26T02:47:26.945Z,51.21
2023-01-26T02:49:59.644Z,51.43
2023-01-26T02:52:34.843Z,51.11
2023-01-26T02:55:29.039Z,51.25
2023-01-26T02:58:01.541Z,50.81
2023-01-26T03:00:39.239Z,51.73
2023-01-26T03:03:14.003Z,52.06
2023-01-26T03:05:45.579Z,51.66
2023-01-26T03:08:17.066Z,51.55
2023-01-26T03:10:48.966Z,51.69
2023-01-26T03:13:21.050Z,51.69
2023-01-26T03:15:56.046Z,51.65
2023-01-26T03:18:44.915Z,51.28
2023-01-26T03:21:34.650Z,51.37
2023-01-26T03:24:24.695Z,51.03
2023-01-26T03:27:16.386Z,51.29
2023-01-26T03:29:47.623Z,51.19
2023-01-26T03:32:18.764Z,51.01
2023-01-26T03:34:50.206Z,51.20
2023-01-26T03:37:24.120Z,50.68
2023-01-26T03:40:24.908Z,51.06
2023-01-26T03:43:13.995Z,50.83
2023-01-26T03:46:02.438Z,50.55
2023-01-26T03:48:53.076Z,50.92
2023-01-26T03:51:41.998Z,50.87
2023-01-26T03:54:30.413Z,50.43
2023-01-26T03:57:01.129Z,50.84
2023-01-26T03:59:40.882Z,50.92
2023-01-26T04:02:32.639Z,50.42
2023-01-26T04:05:23.915Z,50.75
2023-01-26T04:08:22.112Z,50.36
2023-01-26T04:10:58.265Z,50.28
2023-01-26T04:13:47.878Z,50.79
2023-01-26T04:16:45.339Z,50.85
2023-01-26T04:19:34.310Z,50.46
2023-01-26T04:22:05.800Z,50.32
2023-01-26T04:24:38.157Z,50.85
2023-01-26T04:27:08.696Z,50.13
2023-01-26T04:29:41.958Z,50.51
2023-01-26T04:32:12.716Z,50.67
2023-01-26T04:34:43.887Z,50.60
2023-01-26T04:37:22.768Z,50.04
2023-01-26T04:39:54.826Z,50.09
2023-01-26T04:42:26.171Z,49.85
2023-01-26T04:44:58.128Z,50.04
2023-01-26T04:47:30.811Z,50.51
2023-01-26T04:50:01.351Z,50.13
2023-01-26T04:52:31.936Z,50.71
2023-01-26T04:55:03.737Z,50.67
2023-01-26T04:57:36.282Z,50.14
2023-01-26T05:00:08.929Z,50.38
2023-01-26T05:02:41.760Z,50.01
2023-01-26T05:05:13.939Z,50.18
2023-01-26T05:07:44.866Z,50.78
2023-01-26T05:10:17.834Z,50.56
2023-01-26T05:13:17.934Z,50.51
2023-01-26T05:16:07.741Z,50.00
2023-01-26T05:19:01.427Z,52.48
2023-01-26T05:22:07.210Z,52.71
2023-01-26T05:24:39.965Z,52.26
2023-01-26T05:27:36.367Z,49.86
2023-01-26T05:30:07.354Z,50.72
2023-01-26T05:32:39.567Z,51.38
2023-01-26T05:35:10.193Z,50.84
2023-01-26T05:37:43.476Z,50.58
2023-01-26T05:40:15.192Z,47.85
2023-01-26T05:42:47.906Z,47.85
2023-01-26T05:45:45.160Z,48.92
2023-01-26T05:48:17.877Z,48.99
2023-01-26T05:50:49.844Z,49.42
2023-01-26T05:53:23.625Z,49.41
2023-01-26T05:55:54.748Z,47.84
2023-01-26T05:58:28.207Z,47.70
2023-01-26T06:00:59.118Z,48.23
2023-01-26T06:03:33.934Z,48.86
2023-01-26T06:06:04.609Z,49.11
2023-01-26T06:08:41.699Z,49.39
2023-01-26T06:11:30.146Z,49.61
2023-01-26T06:14:30.045Z,49.90
2023-01-26T06:17:00.836Z,49.43
2023-01-26T06:19:31.520Z,49.65
2023-01-26T06:22:04.348Z,50.02
2023-01-26T06:24:35.933Z,49.60
2023-01-26T06:27:09.197Z,50.09
2023-01-26T06:29:39.959Z,49.68
2023-01-26T06:32:14.066Z,49.89
2023-01-26T06:34:46.685Z,49.95
2023-01-26T06:37:17.681Z,50.39
2023-01-26T06:39:49.885Z,49.96
2023-01-26T06:42:20.416Z,49.98
2023-01-26T06:44:51.107Z,50.09
2023-01-26T06:47:21.534Z,49.87
2023-01-26T06:49:53.411Z,49.95
2023-01-26T06:52:24.959Z,50.16
2023-01-26T06:55:00.406Z,49.72
2023-01-26T06:57:55.361Z,49.89
2023-01-26T07:00:44.529Z,49.69
2023-01-26T07:03:17.714Z,49.97
2023-01-26T07:05:48.691Z,49.74
2023-01-26T07:08:19.189Z,50.13
2023-01-26T07:10:50.958Z,49.73
2023-01-26T07:13:22.015Z,49.76
2023-01-26T07:15:52.612Z,49.40
2023-01-26T07:18:23.093Z,49.64
2023-01-26T07:20:53.561Z,49.85
2023-01-26T07:23:24.191Z,49.74
2023-01-26T07:25:55.308Z,49.58
2023-01-26T07:28:27.375Z,49.81
2023-01-26T07:31:01.003Z,49.75
2023-01-26T07:33:31.790Z,49.57
2023-01-26T07:36:03.100Z,49.48
2023-01-26T07:38:34.637Z,49.71
2023-01-26T07:41:13.628Z,49.78
2023-01-26T07:43:44.259Z,49.63
2023-01-26T07:46:15.000Z,49.86
2023-01-26T07:48:45.994Z,49.51
2023-01-26T07:51:16.357Z,49.34
2023-01-26T07:53:51.204Z,49.56
2023-01-26T07:56:22.225Z,49.49
2023-01-26T07:58:56.215Z,49.29
2023-01-26T08:01:26.767Z,49.38
2023-01-26T08:03:57.276Z,49.78
2023-01-26T08:06:27.662Z,49.31
2023-01-26T08:08:59.156Z,49.70
2023-01-26T08:11:29.545Z,49.93
2023-01-26T08:14:00.013Z,49.87
2023-01-26T08:16:31.222Z,49.72
2023-01-26T08:19:01.878Z,49.66
2023-01-26T08:21:32.327Z,49.30
2023-01-26T08:24:04.927Z,49.58
2023-01-26T08:26:36.001Z,49.69
2023-01-26T08:29:06.856Z,49.84
2023-01-26T08:31:37.404Z,49.78
2023-01-26T08:34:08.014Z,49.57
2023-01-26T08:36:38.607Z,49.71
2023-01-26T08:39:09.172Z,49.86
2023-01-26T08:41:39.729Z,49.93
2023-01-26T08:44:11.603Z,49.81
2023-01-26T08:46:42.252Z,51.90
2023-01-26T08:49:12.829Z,51.39
2023-01-26T08:51:46.768Z,51.02
2023-01-26T08:54:17.302Z,50.75
2023-01-26T08:56:47.769Z,51.16
2023-01-26T08:59:18.400Z,51.17
2023-01-26T09:01:51.263Z,50.97
2023-01-26T09:04:22.334Z,50.92
2023-01-26T09:06:52.724Z,50.91
2023-01-26T09:09:23.399Z,50.72
2023-01-26T09:11:56.654Z,50.85
2023-01-26T09:14:27.311Z,50.51
2023-01-26T09:16:57.876Z,50.19
2023-01-26T09:19:30.089Z,50.05
2023-01-26T09:22:01.373Z,50.20
2023-01-26T09:24:32.243Z,50.48
2023-01-26T09:27:03.275Z,50.18
2023-01-26T09:29:33.843Z,49.92
2023-01-26T09:32:04.340Z,49.82
2023-01-26T09:34:35.009Z,50.16
2023-01-26T09:37:05.495Z,49.90
2023-01-26T09:39:36.774Z,49.86
2023-01-26T09:42:16.404Z,49.92
2023-01-26T09:45:07.181Z,49.84
2023-01-26T09:47:55.248Z,49.97
2023-01-26T09:50:28.798Z,49.78
2023-01-26T09:52:59.275Z,49.56
2023-01-26T09:55:31.664Z,49.73
2023-01-26T09:58:12.351Z,49.47
2023-01-26T10:00:48.084Z,49.35
2023-01-26T10:03:24.617Z,49.28
2023-01-26T10:06:01.146Z,49.22
2023-01-26T10:08:51.333Z,49.22
2023-01-26T10:11:42.209Z,49.28
2023-01-26T10:14:26.271Z,49.26
2023-01-26T10:16:56.709Z,49.20
2023-01-26T10:19:49.289Z,49.23
2023-01-26T10:22:28.775Z,49.22
2023-01-26T10:24:59.671Z,49.04
2023-01-26T10:27:50.539Z,49.26
2023-01-26T10:30:22.240Z,49.11
2023-01-26T10:32:54.233Z,49.09
2023-01-26T10:35:26.219Z,49.10
2023-01-26T10:37:57.658Z,48.97
2023-01-26T10:40:28.193Z,48.83
2023-01-26T10:43:00.150Z,48.86
2023-01-26T10:45:35.456Z,48.93
2023-01-26T10:48:27.979Z,48.95
2023-01-26T10:51:15.542Z,48.66
2023-01-26T10:53:46.335Z,49.00
2023-01-26T10:56:21.736Z,48.98
2023-01-26T10:58:54.987Z,49.14
2023-01-26T11:01:29.054Z,49.09
2023-01-26T11:03:59.907Z,49.90
2023-01-26T11:06:31.391Z,50.08
2023-01-26T11:09:12.219Z,50.07
2023-01-26T11:11:43.635Z,50.38
2023-01-26T11:14:23.026Z,50.56
2023-01-26T11:16:56.924Z,50.85
2023-01-26T11:19:27.384Z,51.74
2023-01-26T11:22:01.491Z,51.72
2023-01-26T11:24:36.527Z,51.53
2023-01-26T11:27:21.339Z,51.81
2023-01-26T11:29:51.900Z,51.88
2023-01-26T11:32:51.740Z,51.81
2023-01-26T11:35:32.081Z,52.14
2023-01-26T11:38:15.022Z,52.06
2023-01-26T11:40:51.565Z,52.27
2023-01-26T11:43:45.294Z,52.42
2023-01-26T11:46:34.247Z,52.45
2023-01-26T11:49:08.254Z,52.83
2023-01-26T11:51:47.716Z,52.99
2023-01-26T11:54:29.114Z,53.28
2023-01-26T11:57:15.751Z,53.41
2023-01-26T12:00:00.347Z,53.18
2023-01-26T12:02:35.841Z,53.63
2023-01-26T12:05:24.792Z,53.47
2023-01-26T12:08:12.909Z,53.77
2023-01-26T12:10:50.440Z,53.70
2023-01-26T12:13:21.862Z,53.55
2023-01-26T12:15:56.257Z,54.13
2023-01-26T12:18:48.812Z,53.68
2023-01-26T12:21:24.591Z,53.99
2023-01-26T12:24:43.326Z,54.00
2023-01-26T12:27:15.221Z,53.82
2023-01-26T12:29:56.610Z,53.51
2023-01-26T12:32:27.380Z,53.46
2023-01-26T12:34:59.551Z,53.40
2023-01-26T12:37:52.852Z,53.01
2023-01-26T12:40:26.239Z,53.11
2023-01-26T12:43:08.989Z,52.97
2023-01-26T12:45:41.773Z,53.10
2023-01-26T12:48:22.549Z,53.15
2023-01-26T12:50:56.387Z,53.21
2023-01-26T12:53:37.835Z,53.21
2023-01-26T12:56:13.500Z,53.03
2023-01-26T12:58:45.895Z,53.35
2023-01-26T13:01:20.834Z,53.59
2023-01-26T13:03:57.539Z,53.16
2023-01-26T13:06:28.826Z,53.35
2023-01-26T13:08:59.406Z,54.16
2023-01-26T13:11:56.240Z,53.69
2023-01-26T13:14:29.159Z,53.98
2023-01-26T13:17:00.654Z,54.21
2023-01-26T13:19:37.108Z,54.01
2023-01-26T13:22:27.248Z,54.45
2023-01-26T13:24:57.752Z,54.09
2023-01-26T13:27:31.162Z,54.62
2023-01-26T13:30:02.616Z,54.77
2023-01-26T13:32:33.528Z,54.25
2023-01-26T13:35:05.730Z,54.45
2023-01-26T13:37:48.495Z,54.68
2023-01-26T13:40:21.805Z,54.47
2023-01-26T13:42:56.029Z,54.87
2023-01-26T13:45:45.471Z,54.83
2023-01-26T13:48:39.468Z,54.63
2023-01-26T13:51:14.470Z,54.90
2023-01-26T13:54:05.003Z,54.97
2023-01-26T13:56:37.899Z,55.34
2023-01-26T13:59:09.813Z,55.42
2023-01-26T14:01:44.323Z,55.48
2023-01-26T14:04:16.129Z,55.29
2023-01-26T14:07:05.928Z,55.40
2023-01-26T14:09:43.128Z,55.43
2023-01-26T14:12:19.594Z,55.62
2023-01-26T14:14:52.164Z,55.54
2023-01-26T14:17:29.120Z,55.34
2023-01-26T14:20:01.331Z,55.53
2023-01-26T14:22:32.373Z,55.81
2023-01-26T14:25:02.927Z,55.75
2023-01-26T14:27:40.468Z,55.70
2023-01-26T14:30:24.352Z,55.89
2023-01-26T14:33:09.667Z,55.83
2023-01-26T14:35:40.337Z,55.70
2023-01-26T14:38:13.795Z,55.84
2023-01-26T14:40:47.934Z,56.18
2023-01-26T14:43:18.594Z,56.31
2023-01-26T14:45:59.781Z,56.22
2023-01-26T14:48:36.479Z,56.44
2023-01-26T14:51:09.526Z,56.18
2023-01-26T14:53:40.332Z,56.43
2023-01-26T14:56:19.174Z,56.45
2023-01-26T14:58:54.566Z,56.35
2023-01-26T15:01:27.276Z,56.56
2023-01-26T15:04:03.292Z,56.44
2023-01-26T15:06:34.967Z,56.53
2023-01-26T15:09:07.072Z,56.13
2023-01-26T15:11:56.792Z,56.66
2023-01-26T15:14:27.166Z,56.43
2023-01-26T15:16:57.737Z,56.62
2023-01-26T15:19:32.963Z,56.68
2023-01-26T15:22:03.723Z,56.23
2023-01-26T15:24:34.280Z,56.56
2023-01-26T15:27:08.359Z,56.64
2023-01-26T15:29:38.778Z,56.54
2023-01-26T15:32:29.014Z,56.21
2023-01-26T15:35:25.482Z,56.36
2023-01-26T15:38:06.644Z,56.33
2023-01-26T15:40:37.079Z,56.82
2023-01-26T15:43:17.590Z,56.50
2023-01-26T15:45:54.177Z,56.70
2023-01-26T15:48:26.431Z,56.39
2023-01-26T15:50:56.812Z,56.43
2023-01-26T15:53:27.657Z,56.96
2023-01-26T15:55:59.985Z,56.38
2023-01-26T15:58:32.954Z,56.99
2023-01-26T16:01:03.652Z,56.51
2023-01-26T16:03:34.334Z,56.69
2023-01-26T16:06:05.233Z,56.45
2023-01-26T16:08:35.867Z,57.02
2023-01-26T16:11:08.108Z,56.91
2023-01-26T16:13:38.739Z,56.59
2023-01-26T16:16:11.479Z,57.04
2023-01-26T16:18:43.710Z,57.01
2023-01-26T16:21:35.171Z,56.97
2023-01-26T16:24:06.138Z,57.06
2023-01-26T16:26:36.593Z,56.69
2023-01-26T16:29:07.196Z,57.30
2023-01-26T16:31:38.204Z,57.13
2023-01-26T16:34:11.428Z,57.29
2023-01-26T16:36:41.833Z,57.11
2023-01-26T16:39:12.368Z,57.04
2023-01-26T16:41:42.729Z,56.92
2023-01-26T16:44:18.946Z,57.50
2023-01-26T16:46:49.549Z,57.41
2023-01-26T16:49:20.412Z,57.24
2023-01-26T16:51:50.895Z,57.32
2023-01-26T16:54:21.395Z,57.40
2023-01-26T16:56:51.836Z,57.68
2023-01-26T16:59:22.454Z,57.73
2023-01-26T17:01:53.657Z,57.42
2023-01-26T17:04:24.173Z,57.43
2023-01-26T17:06:54.776Z,57.47
2023-01-26T17:09:26.019Z,57.35
2023-01-26T17:11:56.445Z,57.52
2023-01-26T17:14:27.110Z,57.75
2023-01-26T17:16:57.774Z,57.72
2023-01-26T17:19:28.827Z,57.46
2023-01-26T17:21:59.602Z,57.66
2023-01-26T17:24:30.103Z,57.22
2023-01-26T17:27:00.606Z,57.41
2023-01-26T17:29:31.105Z,57.08
2023-01-26T17:32:01.690Z,57.77
2023-01-26T17:34:32.575Z,57.24
2023-01-26T17:37:03.200Z,57.44
2023-01-26T17:39:33.757Z,56.96
2023-01-26T17:42:04.164Z,57.39
2023-01-26T17:44:34.695Z,57.46
2023-01-26T17:47:05.156Z,57.30
2023-01-26T17:49:35.675Z,57.15
2023-01-26T17:52:07.101Z,57.35
2023-01-26T17:54:37.860Z,57.17
2023-01-26T17:57:08.662Z,57.10
2023-01-26T17:59:39.203Z,57.00
2023-01-26T18:02:09.747Z,57.16
2023-01-26T18:04:40.588Z,57.09
2023-01-26T18:07:10.945Z,57.22
2023-01-26T18:09:41.395Z,56.94
2023-01-26T18:12:12.243Z,57.28
2023-01-26T18:14:42.719Z,57.55
2023-01-26T18:17:13.297Z,57.39
2023-01-26T18:19:43.775Z,57.61
2023-01-26T18:22:14.258Z,57.32
2023-01-26T18:24:44.688Z,57.53
2023-01-26T18:27:15.242Z,57.13
2023-01-26T18:29:45.652Z,57.64
2023-01-26T18:32:16.253Z,57.54
2023-01-26T18:34:46.859Z,57.49
2023-01-26T18:37:17.460Z,57.61
2023-01-26T18:39:48.141Z,57.03
2023-01-26T18:42:18.617Z,57.51
2023-01-26T18:44:49.095Z,57.54
2023-01-26T18:47:19.827Z,57.56
2023-01-26T18:49:50.571Z,57.65
2023-01-26T18:52:21.264Z,57.09
2023-01-26T18:54:52.743Z,57.63
2023-01-26T18:57:23.574Z,57.50
2023-01-26T18:59:54.335Z,57.10
2023-01-26T19:02:26.522Z,57.55
2023-01-26T19:04:58.878Z,57.55
2023-01-26T19:07:29.317Z,57.67
2023-01-26T19:09:59.732Z,57.67
2023-01-26T19:12:30.428Z,57.44
2023-01-26T19:15:01.156Z,57.14
2023-01-26T19:17:31.818Z,57.71
2023-01-26T19:20:02.713Z,57.46
2023-01-26T19:22:33.210Z,57.59
2023-01-26T19:25:03.805Z,57.18
2023-01-26T19:27:34.910Z,57.39
2023-01-26T19:30:05.463Z,57.33
2023-01-26T19:32:36.308Z,57.36
2023-01-26T19:35:06.945Z,57.26
2023-01-26T19:37:37.443Z,57.38
2023-01-26T19:40:08.097Z,57.25
2023-01-26T19:42:38.593Z,57.22
2023-01-26T19:45:09.378Z,57.37
2023-01-26T19:47:42.418Z,57.25
2023-01-26T19:50:13.105Z,57.43
2023-01-26T19:52:43.632Z,57.64
2023-01-26T19:55:14.234Z,57.37
2023-01-26T19:57:44.888Z,57.80
2023-01-26T20:00:15.966Z,57.46
2023-01-26T20:02:46.535Z,57.92
2023-01-26T20:05:16.972Z,57.41
2023-01-26T20:07:47.544Z,57.41
2023-01-26T20:10:18.139Z,57.61
2023-01-26T20:12:48.652Z,57.40
2023-01-26T20:15:19.400Z,57.86
2023-01-26T20:17:50.019Z,57.96
2023-01-26T20:20:20.520Z,57.66
2023-01-26T20:22:51.381Z,57.45
2023-01-26T20:25:21.878Z,58.09
2023-01-26T20:27:52.491Z,57.61
2023-01-26T20:30:23.565Z,57.67
2023-01-26T20:32:55.367Z,57.67
2023-01-26T20:35:25.795Z,57.56
2023-01-26T20:37:57.316Z,57.99
2023-01-26T20:40:28.071Z,57.84
2023-01-26T20:42:58.867Z,58.17
2023-01-26T20:45:29.315Z,57.67
2023-01-26T20:47:59.840Z,57.71
2023-01-26T20:50:30.337Z,57.61
2023-01-26T20:53:00.790Z,58.11
2023-01-26T20:55:31.124Z,57.83
2023-01-26T20:58:01.920Z,58.12
2023-01-26T21:00:32.350Z,57.60
2023-01-26T21:03:02.878Z,58.01
2023-01-26T21:05:33.272Z,57.80
2023-01-26T21:08:03.843Z,57.86
2023-01-26T21:10:36.295Z,58.08
2023-01-26T21:13:06.905Z,57.92
2023-01-26T21:15:37.801Z,58.07
2023-01-26T21:18:08.303Z,57.74
2023-01-26T21:20:38.820Z,58.17
2023-01-26T21:23:09.710Z,58.18
2023-01-26T21:25:40.085Z,57.67
2023-01-26T21:28:10.575Z,58.22
2023-01-26T21:30:41.066Z,58.12
2023-01-26T21:33:12.871Z,57.89
2023-01-26T21:35:43.329Z,57.88
2023-01-26T21:38:14.027Z,58.02
2023-01-26T21:40:44.467Z,58.29
2023-01-26T21:43:14.905Z,57.84
2023-01-26T21:45:54.434Z,57.96
2023-01-26T21:48:37.187Z,58.10
2023-01-26T21:51:26.071Z,58.31
2023-01-26T21:53:58.761Z,57.80
2023-01-26T21:56:29.110Z,57.91
2023-01-26T21:59:03.992Z,57.86
2023-01-26T22:01:36.415Z,57.88
2023-01-26T22:04:10.406Z,57.83
2023-01-26T22:06:40.874Z,58.28
2023-01-26T22:09:13.655Z,58.22
2023-01-26T22:11:44.326Z,58.33
2023-01-26T22:14:32.851Z,57.90
2023-01-26T22:17:03.428Z,57.95
2023-01-26T22:19:34.080Z,58.38
2023-01-26T22:22:04.949Z,58.03
2023-01-26T22:24:35.522Z,58.46
2023-01-26T22:27:08.032Z,57.98
2023-01-26T22:29:39.116Z,58.09
2023-01-26T22:32:09.521Z,58.48
2023-01-26T22:34:40.021Z,58.41
2023-01-26T22:37:10.393Z,58.50
2023-01-26T22:39:41.525Z,58.63
2023-01-26T22:42:12.006Z,58.56
2023-01-26T22:44:43.133Z,58.51
2023-01-26T22:47:13.721Z,58.70
2023-01-26T22:49:45.019Z,58.73
2023-01-26T22:52:15.464Z,58.63
2023-01-26T22:54:46.219Z,58.69
2023-01-26T22:57:16.964Z,58.59
2023-01-26T22:59:47.728Z,58.83
2023-01-26T23:02:18.093Z,58.79
2023-01-26T23:04:48.617Z,58.82
2023-01-26T23:07:19.084Z,58.42
2023-01-26T23:09:49.539Z,58.92
2023-01-26T23:12:20.067Z,58.98
2023-01-26T23:14:51.197Z,58.93
2023-01-26T23:17:21.647Z,58.94
2023-01-26T23:19:52.078Z,59.08
2023-01-26T23:22:22.681Z,59.06
2023-01-26T23:25:11.340Z,58.92
2023-01-26T23:27:41.723Z,58.84
2023-01-26T23:30:12.873Z,58.95
2023-01-26T23:32:43.457Z,59.17
2023-01-26T23:35:14.078Z,59.09
2023-01-26T23:37:44.777Z,59.52
2023-01-26T23:40:15.889Z,59.43
2023-01-26T23:43:03.309Z,58.97
2023-01-26T23:45:34.370Z,59.58
2023-01-26T23:48:04.770Z,59.52
2023-01-26T23:50:35.258Z,59.50
2023-01-26T23:53:05.852Z,59.54
2023-01-26T23:55:36.620Z,59.50
2023-01-26T23:58:07.018Z,59.20
